Main page
METAR-TAF:

METAR-TAF

Airports :

Srinagar International Airport

Srinagar, India

latitude: 33-59-14N, longitude: 074-46-27E, elevation: 1655 m

METAR: missing

Time: 01:43 (20:13 UTC)

Forecast

The report was made 4 hours and 43 minutes ago, at 15:30 UTC
Forecast valid from 28 at 18 UTC to 29 at 06 UTC
Wind 2 kt from variable directions
Visibility: 4000 m
Few clouds at a height of 3000 ft
smoke
Temporary
from 29 at 01 UTC to 29 at 03 UTC
Visibility: 2000 m
Few clouds at a height of 3000 ft
mist

TAF: VISR 281530Z 2818/2906 VRB02KT 4000 FU FEW030 TEMPO 2901/2903 2000 BR FEW030

Weather observations and forecasts of more than 4000 airports (METAR and TAF reports).

The available stations are represented by yellow and red dots on the map.

Hover mouse over dot to see the name of the station.

Then click to see weather observations and forecasts.

To change the map : click on the green buttons with a black cross to zoom in, on the green button with a dash to zoom out, or on the green arrows for adjacent maps.


METAR-TAF: